createdAt,value
2023-01-01T00:00:51.963Z,15.38
2023-01-01T00:03:44.570Z,15.52
2023-01-01T00:06:17.498Z,21.25
2023-01-01T00:09:10.400Z,17.27
2023-01-01T00:11:43.265Z,11.60
2023-01-01T00:14:15.833Z,6.75
2023-01-01T00:16:48.934Z,9.25
2023-01-01T00:19:21.738Z,3.80
2023-01-01T00:21:54.698Z,6.38
2023-01-01T00:24:27.163Z,7.57
2023-01-01T00:27:00.028Z,6.32
2023-01-01T00:29:33.343Z,6.05
2023-01-01T00:32:10.162Z,8.50
2023-01-01T00:34:44.180Z,9.00
2023-01-01T00:37:18.601Z,8.63
2023-01-01T00:39:51.291Z,8.13
2023-01-01T00:42:24.301Z,7.60
2023-01-01T00:44:56.867Z,6.97
2023-01-01T00:47:29.796Z,6.13
2023-01-01T00:50:02.502Z,6.10
2023-01-01T00:52:35.567Z,7.32
2023-01-01T00:55:08.340Z,5.63
2023-01-01T00:57:41.675Z,7.63
2023-01-01T01:00:15.432Z,5.55
2023-01-01T01:02:48.492Z,9.73
2023-01-01T01:05:21.309Z,5.45
2023-01-01T01:07:54.267Z,5.30
2023-01-01T01:10:26.979Z,5.47
2023-01-01T01:12:59.914Z,7.78
2023-01-01T01:15:32.420Z,5.38
2023-01-01T01:18:05.370Z,5.63
2023-01-01T01:20:37.986Z,4.82
2023-01-01T01:23:10.917Z,7.82
2023-01-01T01:25:43.612Z,5.38
2023-01-01T01:28:16.572Z,4.90
2023-01-01T01:30:49.350Z,4.55
2023-01-01T01:33:22.315Z,5.32
2023-01-01T01:35:55.208Z,9.23
2023-01-01T01:38:28.502Z,6.78
2023-01-01T01:41:01.578Z,7.22
2023-01-01T01:43:34.469Z,9.70
2023-01-01T01:46:27.352Z,8.73
2023-01-01T01:49:03.352Z,10.00
2023-01-01T01:51:38.280Z,7.68
2023-01-01T01:54:15.176Z,10.52
2023-01-01T01:56:52.896Z,9.73
2023-01-01T01:59:27.566Z,8.45
2023-01-01T02:02:00.753Z,6.40
2023-01-01T02:04:33.912Z,6.95
2023-01-01T02:07:09.659Z,8.43
2023-01-01T02:09:42.658Z,8.07
2023-01-01T02:12:15.163Z,5.47
2023-01-01T02:14:48.453Z,7.45
2023-01-01T02:17:28.392Z,12.07
2023-01-01T02:20:01.329Z,6.72
2023-01-01T02:22:36.840Z,7.88
2023-01-01T02:25:24.491Z,9.05
2023-01-01T02:28:06.039Z,6.82
2023-01-01T02:33:17.105Z,7.38
2023-01-01T02:35:56.697Z,11.13
2023-01-01T02:38:31.444Z,5.55
2023-01-01T02:41:07.081Z,8.35
2023-01-01T02:43:40.249Z,8.30
2023-01-01T02:48:49.216Z,8.75
2023-01-01T02:51:37.028Z,5.38
2023-01-01T02:54:12.963Z,7.43
2023-01-01T02:56:46.499Z,8.68
2023-01-01T02:59:53.033Z,6.38
2023-01-01T03:02:26.109Z,7.15
2023-01-01T03:05:08.581Z,12.80
2023-01-01T03:07:44.809Z,6.18
2023-01-01T03:10:20.311Z,6.47
2023-01-01T03:12:57.342Z,7.28
2023-01-01T03:15:48.377Z,9.95
2023-01-01T03:18:31.071Z,15.07
2023-01-01T03:21:05.916Z,13.95
2023-01-01T03:23:46.042Z,17.75
2023-01-01T03:26:22.803Z,12.52
2023-01-01T03:28:57.923Z,8.38
2023-01-01T03:31:31.273Z,8.48
2023-01-01T03:34:08.238Z,6.00
2023-01-01T03:36:43.561Z,7.00
2023-01-01T03:39:29.929Z,5.82
2023-01-01T03:42:06.254Z,9.25
2023-01-01T03:44:43.929Z,4.93
2023-01-01T03:47:16.703Z,7.60
2023-01-01T03:49:49.793Z,6.32
2023-01-01T03:52:31.471Z,5.20
2023-01-01T03:55:16.292Z,5.00
2023-01-01T03:58:08.718Z,5.47
2023-01-01T04:00:47.465Z,6.40
2023-01-01T04:03:24.503Z,7.82
2023-01-01T04:05:57.507Z,7.25
2023-01-01T04:08:32.571Z,6.32
2023-01-01T04:11:29.156Z,9.25
2023-01-01T04:14:01.798Z,11.00
2023-01-01T04:16:35.126Z,16.25
2023-01-01T04:19:07.826Z,7.15
2023-01-01T04:21:40.695Z,10.98
2023-01-01T04:24:13.246Z,4.90
2023-01-01T04:26:46.440Z,6.25
2023-01-01T04:29:19.324Z,7.47
2023-01-01T04:31:52.463Z,7.07
2023-01-01T04:34:25.212Z,8.82
2023-01-01T04:36:58.175Z,11.40
2023-01-01T04:39:30.777Z,12.50
2023-01-01T04:42:03.943Z,10.40
2023-01-01T04:44:36.476Z,6.30
2023-01-01T04:47:09.601Z,11.77
2023-01-01T04:49:42.356Z,8.88
2023-01-01T04:52:15.432Z,8.82
2023-01-01T04:54:48.004Z,7.30
2023-01-01T04:57:20.910Z,24.88
2023-01-01T04:59:53.463Z,14.63
2023-01-01T05:02:27.337Z,7.68
2023-01-01T05:05:00.491Z,8.20
2023-01-01T05:07:34.139Z,9.27
2023-01-01T05:10:07.171Z,11.65
2023-01-01T05:12:40.242Z,8.45
2023-01-01T05:15:12.860Z,9.52
2023-01-01T05:17:46.077Z,10.88
2023-01-01T05:20:18.701Z,12.75
2023-01-01T05:22:51.633Z,17.35
2023-01-01T05:25:24.529Z,12.52
2023-01-01T05:27:57.432Z,15.25
2023-01-01T05:30:30.598Z,11.00
2023-01-01T05:33:03.504Z,10.13
2023-01-01T05:35:36.132Z,9.13
2023-01-01T05:38:09.145Z,9.85
2023-01-01T05:40:41.900Z,14.25
2023-01-01T05:43:16.630Z,9.18
2023-01-01T05:45:49.611Z,15.88
2023-01-01T05:48:22.776Z,11.30
2023-01-01T05:50:55.619Z,7.80
2023-01-01T05:53:28.989Z,11.38
2023-01-01T05:56:01.882Z,10.18
2023-01-01T05:58:35.547Z,9.73
2023-01-01T06:01:15.690Z,10.88
2023-01-01T06:03:49.299Z,8.52
2023-01-01T06:06:23.288Z,6.65
2023-01-01T06:08:57.925Z,12.85
2023-01-01T06:11:31.155Z,7.90
2023-01-01T06:14:04.330Z,10.00
2023-01-01T06:16:36.895Z,7.53
2023-01-01T06:19:09.954Z,7.10
2023-01-01T06:21:42.964Z,3.72
2023-01-01T06:24:15.906Z,7.80
2023-01-01T06:26:48.465Z,6.43
2023-01-01T06:29:21.472Z,10.85
2023-01-01T06:31:54.110Z,4.15
2023-01-01T06:34:27.180Z,6.75
2023-01-01T06:37:06.348Z,8.68
2023-01-01T06:39:39.932Z,5.15
2023-01-01T06:42:12.493Z,5.45
2023-01-01T06:44:46.041Z,5.93
2023-01-01T06:47:18.560Z,5.60
2023-01-01T06:49:54.113Z,6.45
2023-01-01T06:52:26.581Z,7.53
2023-01-01T06:54:59.578Z,7.32
2023-01-01T06:57:34.890Z,9.52
2023-01-01T07:00:08.123Z,7.60
2023-01-01T07:02:40.803Z,6.25
2023-01-01T07:05:13.887Z,5.97
2023-01-01T07:07:46.414Z,11.88
2023-01-01T07:10:19.510Z,12.23
2023-01-01T07:12:52.022Z,10.00
2023-01-01T07:15:24.875Z,9.27
2023-01-01T07:17:57.511Z,8.68
2023-01-01T07:20:30.709Z,7.78
2023-01-01T07:23:03.446Z,7.75
2023-01-01T07:25:36.333Z,10.35
2023-01-01T07:28:09.433Z,6.38
2023-01-01T07:30:42.594Z,7.40
2023-01-01T07:33:16.908Z,8.20
2023-01-01T07:35:50.232Z,7.65
2023-01-01T07:38:22.722Z,13.57
2023-01-01T07:40:55.692Z,19.27
2023-01-01T07:43:28.296Z,14.57
2023-01-01T07:46:01.616Z,20.95
2023-01-01T07:48:39.756Z,15.73
2023-01-01T07:51:14.077Z,14.10
2023-01-01T07:53:46.672Z,16.10
2023-01-01T07:56:19.814Z,18.65
2023-01-01T07:58:52.421Z,10.10
2023-01-01T08:01:25.792Z,8.00
2023-01-01T08:03:58.522Z,8.30
2023-01-01T08:06:31.362Z,9.27
2023-01-01T08:09:03.962Z,7.85
2023-01-01T08:11:36.865Z,8.00
2023-01-01T08:14:09.304Z,9.48
2023-01-01T08:16:42.254Z,14.70
2023-01-01T08:19:14.786Z,12.63
2023-01-01T08:21:47.689Z,7.53
2023-01-01T08:24:20.557Z,7.85
2023-01-01T08:26:53.423Z,7.88
2023-01-01T08:29:26.030Z,5.13
2023-01-01T08:31:58.973Z,6.38
2023-01-01T08:34:31.612Z,5.65
2023-01-01T08:37:04.875Z,6.60
2023-01-01T08:39:37.423Z,6.63
2023-01-01T08:42:12.338Z,9.45
2023-01-01T08:44:45.248Z,6.28
2023-01-01T08:47:22.154Z,5.60
2023-01-01T08:49:54.782Z,16.58
2023-01-01T08:52:27.747Z,6.13
2023-01-01T08:55:01.382Z,7.70
2023-01-01T08:57:34.322Z,7.97
2023-01-01T09:00:09.706Z,7.35
2023-01-01T09:02:43.069Z,8.40
2023-01-01T09:05:15.890Z,8.95
2023-01-01T09:07:49.094Z,7.85
2023-01-01T09:10:21.590Z,6.00
2023-01-01T09:12:54.567Z,10.00
2023-01-01T09:15:27.229Z,8.10
2023-01-01T09:18:00.094Z,9.15
2023-01-01T09:20:32.698Z,15.80
2023-01-01T09:23:06.286Z,7.68
2023-01-01T09:25:39.123Z,14.85
2023-01-01T09:28:13.808Z,9.25
2023-01-01T09:30:46.537Z,10.25
2023-01-01T09:33:19.405Z,13.30
2023-01-01T09:35:52.705Z,9.32
2023-01-01T09:38:25.622Z,14.60
2023-01-01T09:41:10.306Z,7.57
2023-01-01T09:43:46.313Z,12.00
2023-01-01T09:46:19.563Z,13.07
2023-01-01T09:48:56.761Z,9.30
2023-01-01T09:51:34.176Z,5.05
2023-01-01T09:54:07.115Z,7.40
2023-01-01T09:56:41.269Z,7.03
2023-01-01T09:59:14.465Z,7.22
2023-01-01T10:01:54.929Z,9.02
2023-01-01T10:04:42.142Z,7.10
2023-01-01T10:07:33.920Z,5.10
2023-01-01T10:10:25.182Z,7.00
2023-01-01T10:13:13.009Z,6.68
2023-01-01T10:15:53.050Z,10.85
2023-01-01T10:18:28.328Z,8.43
2023-01-01T10:21:12.817Z,10.13
2023-01-01T10:23:49.884Z,6.45
2023-01-01T10:26:43.013Z,9.00
2023-01-01T10:29:17.790Z,8.50
2023-01-01T10:31:55.440Z,6.68
2023-01-01T10:34:29.447Z,8.43
2023-01-01T10:37:03.857Z,8.32
2023-01-01T10:39:36.596Z,4.57
2023-01-01T10:42:11.368Z,5.80
2023-01-01T10:44:44.131Z,7.72
2023-01-01T10:47:25.853Z,4.35
2023-01-01T10:50:00.322Z,7.18
2023-01-01T10:52:38.212Z,7.38
2023-01-01T10:55:21.004Z,8.40
2023-01-01T10:57:54.547Z,6.45
2023-01-01T11:00:28.552Z,8.07
2023-01-01T11:03:21.359Z,6.45
2023-01-01T11:06:00.046Z,12.68
2023-01-01T11:08:34.250Z,14.98
2023-01-01T11:11:07.021Z,9.85
2023-01-01T11:13:40.700Z,6.13
2023-01-01T11:16:13.301Z,7.97
2023-01-01T11:18:47.078Z,6.30
2023-01-01T11:21:21.248Z,11.27
2023-01-01T11:24:09.697Z,5.53
2023-01-01T11:26:42.267Z,5.68
2023-01-01T11:29:15.235Z,9.02
2023-01-01T11:31:48.039Z,8.20
2023-01-01T11:34:20.895Z,9.93
2023-01-01T11:36:53.712Z,7.30
2023-01-01T11:39:27.218Z,8.15
2023-01-01T11:42:00.013Z,10.23
2023-01-01T11:44:45.061Z,18.67
2023-01-01T11:47:32.053Z,12.00
2023-01-01T11:50:16.941Z,12.18
2023-01-01T11:52:50.741Z,12.43
2023-01-01T11:55:38.085Z,10.32
2023-01-01T11:58:22.116Z,12.52
2023-01-01T12:00:56.003Z,13.88
2023-01-01T12:03:49.140Z,14.43
2023-01-01T12:06:31.106Z,10.25
2023-01-01T12:09:14.626Z,10.38
2023-01-01T12:11:57.876Z,12.80
2023-01-01T12:14:55.778Z,10.30
2023-01-01T12:17:33.809Z,6.55
2023-01-01T12:20:11.743Z,7.95
2023-01-01T12:22:44.646Z,8.98
2023-01-01T12:25:19.091Z,9.35
2023-01-01T12:28:04.001Z,5.68
2023-01-01T12:30:39.355Z,9.10
2023-01-01T12:33:15.096Z,11.15
2023-01-01T12:35:54.198Z,9.13
2023-01-01T12:38:36.204Z,6.30
2023-01-01T12:41:14.974Z,11.43
2023-01-01T12:44:06.733Z,9.48
2023-01-01T12:46:58.659Z,7.75
2023-01-01T12:49:31.757Z,11.70
2023-01-01T12:52:22.836Z,9.65
2023-01-01T12:54:55.885Z,8.50
2023-01-01T12:57:41.657Z,11.63
2023-01-01T13:00:16.581Z,8.73
2023-01-01T13:02:55.902Z,6.50
2023-01-01T13:05:37.924Z,8.95
2023-01-01T13:08:10.579Z,12.60
2023-01-01T13:10:47.946Z,7.50
2023-01-01T13:13:20.636Z,8.98
2023-01-01T13:15:56.981Z,8.10
2023-01-01T13:18:38.934Z,9.05
2023-01-01T13:21:18.155Z,7.05
2023-01-01T13:23:51.322Z,7.55
2023-01-01T13:26:27.012Z,7.65
2023-01-01T13:29:00.282Z,10.90
2023-01-01T13:31:39.803Z,10.48
2023-01-01T13:34:30.993Z,11.00
2023-01-01T13:37:18.064Z,11.95
2023-01-01T13:39:55.791Z,8.48
2023-01-01T13:42:52.668Z,9.23
2023-01-01T13:46:01.144Z,13.23
2023-01-01T13:48:27.401Z,20.08
2023-01-01T13:51:11.420Z,22.00
2023-01-01T13:53:55.892Z,14.93
2023-01-01T13:56:28.494Z,25.88
2023-01-01T13:59:05.585Z,17.25
2023-01-01T14:01:38.359Z,13.98
2023-01-01T14:04:21.244Z,15.98
2023-01-01T14:06:55.349Z,22.42
2023-01-01T14:09:28.568Z,22.02
2023-01-01T14:12:09.461Z,23.33
2023-01-01T14:14:42.599Z,18.30
2023-01-01T14:17:18.320Z,15.30
2023-01-01T14:19:51.351Z,16.88
2023-01-01T14:22:23.897Z,10.70
2023-01-01T14:24:57.103Z,9.93
2023-01-01T14:27:30.029Z,12.50
2023-01-01T14:30:03.332Z,10.20
2023-01-01T14:32:35.974Z,6.28
2023-01-01T14:35:14.957Z,24.40
2023-01-01T14:37:47.419Z,10.23
2023-01-01T14:40:29.700Z,13.07
2023-01-01T14:45:36.795Z,11.07
2023-01-01T14:48:18.118Z,21.70
2023-01-01T14:50:52.813Z,17.80
2023-01-01T14:53:30.084Z,15.63
2023-01-01T14:56:07.656Z,15.23
2023-01-01T14:58:40.822Z,12.38
2023-01-01T15:01:14.494Z,13.75
2023-01-01T15:04:05.190Z,27.67
2023-01-01T15:06:41.221Z,24.83
2023-01-01T15:09:16.222Z,22.17
2023-01-01T15:11:51.283Z,17.50
2023-01-01T15:14:36.173Z,20.13
2023-01-01T15:17:10.008Z,16.13
2023-01-01T15:19:43.916Z,14.75
2023-01-01T15:22:27.836Z,47.75
2023-01-01T15:25:00.966Z,16.98
2023-01-01T15:27:34.989Z,11.48
2023-01-01T15:30:13.519Z,12.65
2023-01-01T15:32:46.803Z,10.95
2023-01-01T15:35:31.164Z,15.35
2023-01-01T15:38:12.410Z,21.20
2023-01-01T15:40:52.729Z,27.55
2023-01-01T15:43:27.243Z,17.33
2023-01-01T15:46:01.360Z,17.33
2023-01-01T15:48:35.406Z,15.65
2023-01-01T15:51:13.047Z,13.77
2023-01-01T15:53:51.156Z,17.23
2023-01-01T15:56:26.104Z,39.85
2023-01-01T15:59:05.102Z,37.38
2023-01-01T16:01:41.907Z,24.30
2023-01-01T16:04:25.856Z,14.68
2023-01-01T16:07:00.815Z,17.88
2023-01-01T16:09:36.255Z,16.70
2023-01-01T16:12:11.047Z,20.58
2023-01-01T16:14:47.403Z,19.13
2023-01-01T16:17:20.914Z,15.57
2023-01-01T16:19:55.201Z,17.65
2023-01-01T16:22:31.904Z,22.70
2023-01-01T16:25:19.747Z,19.95
2023-01-01T16:27:52.362Z,19.23
2023-01-01T16:30:26.586Z,20.85
2023-01-01T16:32:59.489Z,13.18
2023-01-01T16:35:32.468Z,16.67
2023-01-01T16:38:05.189Z,13.45
2023-01-01T16:40:38.617Z,17.42
2023-01-01T16:43:17.598Z,15.32
2023-01-01T16:45:51.490Z,28.25
2023-01-01T16:48:24.035Z,15.57
2023-01-01T16:50:57.037Z,17.85
2023-01-01T16:53:29.759Z,19.23
2023-01-01T16:56:02.707Z,21.17
2023-01-01T16:58:55.290Z,22.13
2023-01-01T17:01:28.499Z,25.60
2023-01-01T17:04:01.159Z,24.35
2023-01-01T17:06:34.163Z,19.83
2023-01-01T17:09:07.251Z,25.67
2023-01-01T17:11:40.375Z,31.45
2023-01-01T17:14:14.766Z,37.88
2023-01-01T17:16:48.098Z,22.00
2023-01-01T17:19:20.721Z,23.48
2023-01-01T17:21:56.129Z,25.13
2023-01-01T17:24:28.704Z,23.25
2023-01-01T17:27:01.615Z,21.02
2023-01-01T17:29:34.296Z,19.88
2023-01-01T17:32:07.470Z,14.90
2023-01-01T17:34:40.004Z,19.65
2023-01-01T17:37:12.920Z,15.85
2023-01-01T17:39:45.430Z,19.92
2023-01-01T17:42:18.363Z,21.83
2023-01-01T17:44:51.038Z,22.45
2023-01-01T17:47:30.759Z,16.92
2023-01-01T17:50:05.957Z,31.42
2023-01-01T17:52:39.007Z,29.85
2023-01-01T17:55:11.546Z,16.30
2023-01-01T17:57:45.770Z,19.45
2023-01-01T18:00:18.332Z,20.50
2023-01-01T18:02:51.442Z,21.67
2023-01-01T18:05:26.849Z,15.77
2023-01-01T18:07:59.760Z,22.48
2023-01-01T18:10:32.651Z,19.58
2023-01-01T18:13:05.646Z,17.15
2023-01-01T18:15:38.296Z,20.77
2023-01-01T18:18:11.837Z,17.52
2023-01-01T18:20:44.522Z,17.80
2023-01-01T18:23:18.221Z,15.63
2023-01-01T18:25:50.745Z,15.60
2023-01-01T18:28:23.708Z,17.15
2023-01-01T18:30:56.823Z,18.17
2023-01-01T18:33:29.758Z,16.90
2023-01-01T18:36:09.896Z,17.85
2023-01-01T18:38:45.950Z,22.05
2023-01-01T18:41:21.877Z,16.77
2023-01-01T18:43:58.271Z,15.65
2023-01-01T18:46:31.363Z,22.88
2023-01-01T18:49:08.359Z,23.92
2023-01-01T18:51:41.282Z,22.33
2023-01-01T18:54:14.325Z,23.33
2023-01-01T18:56:47.416Z,29.45
2023-01-01T18:59:21.614Z,28.65
2023-01-01T19:01:54.282Z,21.38
2023-01-01T19:04:27.649Z,17.70
2023-01-01T19:07:02.061Z,18.55
2023-01-01T19:09:37.163Z,20.63
2023-01-01T19:12:11.045Z,14.40
2023-01-01T19:14:44.069Z,12.77
2023-01-01T19:17:22.605Z,18.35
2023-01-01T19:19:55.544Z,13.07
2023-01-01T19:22:32.189Z,15.43
2023-01-01T19:25:25.511Z,9.85
2023-01-01T19:28:11.685Z,15.75
2023-01-01T19:30:45.411Z,11.95
2023-01-01T19:33:18.108Z,13.73
2023-01-01T19:35:51.070Z,13.80
2023-01-01T19:38:23.593Z,25.42
2023-01-01T19:40:56.552Z,11.02
2023-01-01T19:43:29.262Z,14.85
2023-01-01T19:46:02.537Z,14.38
2023-01-01T19:48:35.355Z,8.52
2023-01-01T19:51:08.487Z,8.65
2023-01-01T19:53:41.690Z,13.98
2023-01-01T19:56:14.783Z,18.85
2023-01-01T19:58:47.834Z,11.02
2023-01-01T20:01:21.206Z,13.43
2023-01-01T20:03:56.097Z,11.85
2023-01-01T20:06:30.823Z,13.90
2023-01-01T20:09:03.443Z,25.45
2023-01-01T20:11:36.497Z,21.23
2023-01-01T20:14:09.063Z,11.70
2023-01-01T20:16:43.438Z,13.98
2023-01-01T20:19:16.125Z,11.55
2023-01-01T20:22:07.943Z,7.35
2023-01-01T20:24:42.585Z,11.35
2023-01-01T20:27:23.559Z,8.32
2023-01-01T20:29:57.958Z,10.20
2023-01-01T20:32:30.868Z,8.23
2023-01-01T20:35:03.595Z,10.30
2023-01-01T20:37:39.596Z,11.23
2023-01-01T20:40:12.458Z,8.25
2023-01-01T20:42:45.373Z,10.80
2023-01-01T20:45:18.156Z,9.35
2023-01-01T20:47:51.101Z,6.70
2023-01-01T20:50:23.751Z,9.15
2023-01-01T20:52:56.683Z,10.10
2023-01-01T20:55:29.181Z,12.07
2023-01-01T20:58:02.839Z,8.70
2023-01-01T21:00:36.676Z,7.00
2023-01-01T21:03:09.763Z,11.40
2023-01-01T21:05:43.531Z,13.70
2023-01-01T21:08:17.874Z,8.50
2023-01-01T21:10:51.365Z,7.85
2023-01-01T21:13:24.249Z,9.05
2023-01-01T21:15:57.691Z,8.73
2023-01-01T21:18:30.633Z,10.02
2023-01-01T21:21:03.246Z,9.07
2023-01-01T21:23:36.160Z,9.07
2023-01-01T21:26:15.081Z,11.45
2023-01-01T21:28:48.285Z,11.45
2023-01-01T21:31:22.092Z,15.55
2023-01-01T21:33:55.197Z,11.15
2023-01-01T21:36:28.776Z,9.73
2023-01-01T21:39:04.435Z,8.88
2023-01-01T21:41:37.152Z,8.25
2023-01-01T21:44:14.829Z,9.15
2023-01-01T21:46:56.869Z,10.13
2023-01-01T21:49:39.711Z,13.63
2023-01-01T21:52:15.918Z,8.57
2023-01-01T21:54:49.511Z,6.32
2023-01-01T21:57:23.860Z,13.85
2023-01-01T21:59:57.042Z,6.38
2023-01-01T22:02:37.636Z,7.97
2023-01-01T22:05:31.352Z,8.10
2023-01-01T22:08:19.682Z,6.65
2023-01-01T22:10:52.714Z,14.13
2023-01-01T22:13:25.908Z,11.80
2023-01-01T22:15:58.880Z,12.23
2023-01-01T22:18:32.416Z,9.50
2023-01-01T22:21:05.706Z,8.60
2023-01-01T22:23:40.186Z,8.13
2023-01-01T22:26:21.962Z,7.72
2023-01-01T22:29:02.619Z,11.40
2023-01-01T22:31:36.713Z,15.95
2023-01-01T22:34:17.137Z,16.13
2023-01-01T22:36:50.003Z,11.98
2023-01-01T22:39:28.003Z,12.20
2023-01-01T22:42:00.872Z,7.95
2023-01-01T22:44:37.288Z,5.80
2023-01-01T22:47:13.054Z,6.75
2023-01-01T22:49:51.600Z,6.45
2023-01-01T22:52:24.897Z,5.82
2023-01-01T22:54:57.550Z,10.90
2023-01-01T22:57:30.439Z,7.57
2023-01-01T23:00:03.153Z,7.18
2023-01-01T23:02:36.176Z,4.90
2023-01-01T23:05:10.167Z,10.20
2023-01-01T23:07:43.766Z,8.95
2023-01-01T23:10:16.639Z,12.15
2023-01-01T23:12:49.724Z,10.35
2023-01-01T23:15:40.846Z,4.80
2023-01-01T23:18:15.599Z,6.78
2023-01-01T23:20:48.413Z,12.90
2023-01-01T23:23:21.394Z,6.60
2023-01-01T23:25:54.152Z,7.32
2023-01-01T23:28:28.734Z,7.53
2023-01-01T23:31:02.412Z,6.30
2023-01-01T23:33:35.678Z,7.30
2023-01-01T23:36:08.766Z,11.32
2023-01-01T23:38:42.072Z,6.15
2023-01-01T23:41:14.676Z,10.27
2023-01-01T23:43:47.579Z,8.27
2023-01-01T23:46:20.329Z,8.38
2023-01-01T23:48:54.034Z,9.48
2023-01-01T23:51:26.614Z,7.55
2023-01-01T23:53:59.501Z,9.05
2023-01-01T23:56:32.881Z,11.43
2023-01-01T23:59:06.290Z,13.20
